Time;durP1;ratioP1;P1;durP2;ratioP2;P2;SDS_P1;SDS_P2;PMS_P1;PMS_P2;Temp;Humidity;BMP_temperature;BMP_pressure;BME280_temperature;BME280_humidity;BME280_pressure;Samples;Min_cycle;Max_cycle;Signal;HPM_P1;HPM_P2
2021/12/02 00:01:16;;;;;;;;;3.00;3.00;;;;;;;;4957746;28;45448;-50
2021/12/02 00:03:42;;;;;;;;;2.33;2.33;;;;;;;;4959324;28;45273;-48
2021/12/02 00:06:08;;;;;;;;;2.67;2.67;;;;;;;;4959092;28;45440;-52
2021/12/02 00:08:34;;;;;;;;;6.00;6.00;;;;;;;;4960318;28;45206;-51
2021/12/02 00:11:00;;;;;;;;;4.00;2.67;;;;;;;;4968780;28;45520;-50
2021/12/02 00:13:28;;;;;;;;;5.33;3.67;;;;;;;;4941882;28;46042;-48
2021/12/02 00:21:04;;;;;;;;;2.00;2.00;;;;;;;;4969309;28;45359;-49
2021/12/02 00:23:42;;;;;;;;;2.00;2.00;;;;;;;;4957844;28;47103;-48
2021/12/02 00:26:09;;;;;;;;;2.00;2.00;;;;;;;;4970474;28;45263;-47
2021/12/02 00:28:36;;;;;;;;;4.33;3.00;;;;;;;;4961656;28;45384;-49
2021/12/02 00:31:01;;;;;;;;;1.33;1.33;;;;;;;;4967737;28;45582;-48
2021/12/02 00:33:27;;;;;;;;;4.67;4.33;;;;;;;;4966199;28;45906;-49
2021/12/02 00:35:53;;;;;;;;;2.33;2.00;;;;;;;;4969133;28;45450;-52
2021/12/02 00:38:20;;;;;;;;;1.67;1.67;;;;;;;;4958994;28;45340;-47
2021/12/02 00:40:46;;;;;;;;;2.00;1.67;;;;;;;;4957501;28;45538;-53
2021/12/02 00:43:12;;;;;;;;;3.33;2.67;;;;;;;;4956893;28;45345;-53
2021/12/02 00:45:39;;;;;;;;;2.67;2.67;;;;;;;;4958666;28;45262;-52
2021/12/02 00:48:06;;;;;;;;;3.00;3.00;;;;;;;;4959055;28;45298;-51
2021/12/02 00:50:32;;;;;;;;;2.33;2.33;;;;;;;;4959001;28;45238;-50
2021/12/02 00:52:57;;;;;;;;;3.00;3.00;;;;;;;;4958472;28;45475;-49
2021/12/02 00:55:24;;;;;;;;;2.00;2.00;;;;;;;;4957856;28;45508;-48
2021/12/02 00:57:49;;;;;;;;;3.67;3.67;;;;;;;;4954029;28;45451;-47
2021/12/02 01:00:15;;;;;;;;;4.33;4.33;;;;;;;;4958463;28;45408;-48
2021/12/02 01:02:42;;;;;;;;;5.67;3.00;;;;;;;;4957887;28;45450;-49
2021/12/02 01:05:07;;;;;;;;;2.33;2.00;;;;;;;;4956911;28;45397;-48
2021/12/02 01:07:33;;;;;;;;;2.00;2.00;;;;;;;;4958549;28;45368;-52
2021/12/02 01:09:59;;;;;;;;;5.00;5.00;;;;;;;;4957244;28;45279;-51
2021/12/02 01:12:24;;;;;;;;;3.67;2.00;;;;;;;;4958477;28;45236;-52
2021/12/02 01:14:49;;;;;;;;;3.00;3.00;;;;;;;;4956933;28;45242;-53
2021/12/02 01:17:15;;;;;;;;;4.33;2.33;;;;;;;;4957572;28;45262;-51
2021/12/02 01:19:40;;;;;;;;;4.33;4.33;;;;;;;;4958435;28;45147;-52
2021/12/02 01:22:06;;;;;;;;;3.67;3.67;;;;;;;;4957750;28;46279;-49
2021/12/02 01:24:31;;;;;;;;;4.33;4.33;;;;;;;;4957033;28;45352;-50
2021/12/02 01:26:57;;;;;;;;;3.67;3.00;;;;;;;;4957237;28;45368;-53
2021/12/02 01:29:24;;;;;;;;;7.00;5.67;;;;;;;;4958103;28;45316;-50
2021/12/02 01:31:52;;;;;;;;;5.33;4.33;;;;;;;;4957948;28;46340;-49
2021/12/02 01:34:21;;;;;;;;;3.67;3.67;;;;;;;;4958309;28;45436;-47
2021/12/02 01:36:48;;;;;;;;;4.67;4.67;;;;;;;;4958938;28;45494;-51
2021/12/02 01:39:13;;;;;;;;;3.67;3.00;;;;;;;;4962113;28;45614;-48
2021/12/02 01:41:50;;;;;;;;;6.00;5.67;;;;;;;;4969462;28;46013;-46
2021/12/02 01:44:16;;;;;;;;;7.50;7.50;;;;;;;;4956769;28;46083;-49
2021/12/02 01:46:42;;;;;;;;;4.00;4.00;;;;;;;;4958020;28;45495;-47
2021/12/02 01:49:08;;;;;;;;;7.00;7.00;;;;;;;;4944354;28;45550;-49
2021/12/02 01:51:39;;;;;;;;;8.50;6.50;;;;;;;;4962471;28;45399;-48
2021/12/02 01:54:09;;;;;;;;;7.00;5.25;;;;;;;;4957645;28;45396;-50
2021/12/02 01:56:43;;;;;;;;;5.33;5.33;;;;;;;;4951827;28;45191;-50
2021/12/02 01:59:10;;;;;;;;;7.50;7.50;;;;;;;;4959379;28;45407;-49
2021/12/02 02:01:36;;;;;;;;;7.00;6.00;;;;;;;;4966736;28;46344;-51
2021/12/02 02:04:02;;;;;;;;;6.75;6.75;;;;;;;;4957537;28;45369;-49
2021/12/02 02:06:29;;;;;;;;;6.00;6.00;;;;;;;;4969799;28;45596;-51
2021/12/02 02:08:55;;;;;;;;;6.00;6.00;;;;;;;;4959248;28;45451;-49
2021/12/02 02:11:23;;;;;;;;;6.50;6.50;;;;;;;;4951761;28;46485;-52
2021/12/02 02:13:50;;;;;;;;;7.00;7.00;;;;;;;;4957287;28;45362;-48
2021/12/02 02:16:15;;;;;;;;;8.00;8.00;;;;;;;;4961997;28;45284;-46
2021/12/02 02:18:41;;;;;;;;;7.00;7.00;;;;;;;;4963794;28;45357;-50
2021/12/02 02:21:09;;;;;;;;;7.00;6.75;;;;;;;;4957220;28;45380;-48
2021/12/02 02:23:38;;;;;;;;;7.75;7.75;;;;;;;;4957138;28;45419;-48
2021/12/02 02:26:04;;;;;;;;;6.75;6.75;;;;;;;;4954831;28;45210;-50
2021/12/02 02:28:29;;;;;;;;;7.00;6.00;;;;;;;;4957287;28;45565;-50
2021/12/02 02:30:55;;;;;;;;;5.00;4.00;;;;;;;;4957096;28;46419;-49
2021/12/02 02:33:22;;;;;;;;;3.75;3.75;;;;;;;;4955872;28;45320;-50
2021/12/02 02:35:47;;;;;;;;;10.00;6.00;;;;;;;;4957556;28;45349;-51
2021/12/02 02:38:14;;;;;;;;;6.50;6.50;;;;;;;;4957533;28;45297;-51
2021/12/02 02:40:42;;;;;;;;;7.00;6.00;;;;;;;;4957056;28;45322;-52
2021/12/02 02:43:08;;;;;;;;;0.00;0.00;;;;;;;;4957199;28;45459;-50
2021/12/02 02:45:34;;;;;;;;;3.75;3.75;;;;;;;;4955321;28;45311;-52
2021/12/02 02:48:00;;;;;;;;;5.50;5.50;;;;;;;;4956743;28;45342;-49
2021/12/02 02:50:25;;;;;;;;;5.50;3.50;;;;;;;;4957195;28;46002;-50
2021/12/02 02:52:57;;;;;;;;;4.00;4.00;;;;;;;;4957058;28;45262;-48
2021/12/02 02:55:23;;;;;;;;;7.00;4.25;;;;;;;;4956169;28;45281;-54
2021/12/02 02:58:05;;;;;;;;;4.25;4.25;;;;;;;;4956545;28;45380;-52
2021/12/02 03:00:34;;;;;;;;;7.00;6.00;;;;;;;;4950514;28;45322;-53
2021/12/02 03:08:17;;;;;;;;;4.50;3.25;;;;;;;;4956175;28;45329;-48
2021/12/02 03:10:50;;;;;;;;;7.25;6.25;;;;;;;;4956474;28;45508;-50
2021/12/02 03:18:27;;;;;;;;;5.00;3.00;;;;;;;;4955638;28;45451;-50
2021/12/02 03:20:52;;;;;;;;;2.00;2.00;;;;;;;;4956424;28;46221;-47
2021/12/02 03:23:18;;;;;;;;;2.00;2.00;;;;;;;;4955849;28;45336;-47
2021/12/02 03:25:43;;;;;;;;;4.67;4.33;;;;;;;;4956649;28;45383;-51
2021/12/02 03:28:08;;;;;;;;;1.33;1.33;;;;;;;;4955560;28;45556;-48
2021/12/02 03:30:33;;;;;;;;;3.00;2.00;;;;;;;;4959336;28;45620;-47
2021/12/02 03:32:59;;;;;;;;;0.67;0.67;;;;;;;;4956428;28;45305;-47
2021/12/02 03:35:24;;;;;;;;;2.00;1.00;;;;;;;;4956333;28;45317;-53
2021/12/02 03:37:49;;;;;;;;;3.00;2.00;;;;;;;;4956218;28;45650;-51
2021/12/02 03:40:14;;;;;;;;;2.33;2.33;;;;;;;;4955613;28;45479;-47
2021/12/02 03:42:46;;;;;;;;;1.00;1.00;;;;;;;;4955886;28;45329;-52
2021/12/02 03:45:11;;;;;;;;;2.33;1.33;;;;;;;;4957926;28;45556;-49
2021/12/02 03:47:36;;;;;;;;;2.00;1.33;;;;;;;;4959863;28;45483;-46
2021/12/02 03:50:01;;;;;;;;;1.00;1.00;;;;;;;;4959181;28;46422;-48
2021/12/02 03:52:27;;;;;;;;;1.00;1.00;;;;;;;;4958827;28;45313;-50
2021/12/02 03:54:52;;;;;;;;;5.33;2.00;;;;;;;;4959238;28;45444;-51
2021/12/02 03:57:17;;;;;;;;;1.00;1.00;;;;;;;;4958803;28;45258;-52
2021/12/02 03:59:42;;;;;;;;;1.00;1.00;;;;;;;;4959116;28;45171;-48
2021/12/02 04:02:07;;;;;;;;;0.67;0.00;;;;;;;;4958188;28;45520;-51
2021/12/02 04:04:33;;;;;;;;;1.00;1.00;;;;;;;;4959490;28;45256;-47
2021/12/02 04:06:58;;;;;;;;;2.00;1.67;;;;;;;;4959467;28;45222;-54
2021/12/02 04:09:26;;;;;;;;;1.00;1.00;;;;;;;;4957961;28;45574;-51
2021/12/02 04:11:58;;;;;;;;;1.00;1.00;;;;;;;;4958596;28;45383;-50
2021/12/02 04:16:57;;;;;;;;;0.67;0.67;;;;;;;;4958932;28;45396;-50
2021/12/02 04:19:23;;;;;;;;;1.00;1.00;;;;;;;;4958341;28;45419;-52
2021/12/02 04:21:49;;;;;;;;;0.67;0.67;;;;;;;;4958483;28;45372;-49
2021/12/02 04:24:14;;;;;;;;;1.67;1.00;;;;;;;;4957158;28;45423;-48
2021/12/02 04:26:40;;;;;;;;;1.00;1.00;;;;;;;;4958969;28;45515;-49
2021/12/02 04:29:05;;;;;;;;;0.67;0.67;;;;;;;;4958519;28;45549;-47
2021/12/02 04:31:31;;;;;;;;;0.00;0.00;;;;;;;;4956531;28;45446;-49
2021/12/02 04:33:56;;;;;;;;;0.67;0.33;;;;;;;;4958474;28;45465;-51
2021/12/02 04:36:21;;;;;;;;;1.33;0.00;;;;;;;;4958818;28;45513;-51
2021/12/02 04:38:46;;;;;;;;;1.33;1.00;;;;;;;;4958236;28;46453;-49
2021/12/02 04:41:13;;;;;;;;;2.00;2.00;;;;;;;;4958701;28;45288;-50
2021/12/02 04:43:39;;;;;;;;;1.67;1.67;;;;;;;;4958737;28;45389;-48
2021/12/02 04:46:04;;;;;;;;;1.00;1.00;;;;;;;;4957766;28;45626;-52
2021/12/02 04:48:29;;;;;;;;;0.75;0.75;;;;;;;;4957840;28;46505;-49
2021/12/02 04:50:54;;;;;;;;;2.00;2.00;;;;;;;;4958627;28;45301;-47
2021/12/02 04:53:19;;;;;;;;;5.25;1.50;;;;;;;;4958238;28;45380;-47
2021/12/02 04:55:45;;;;;;;;;1.33;1.33;;;;;;;;4957266;28;45608;-44
2021/12/02 04:58:10;;;;;;;;;1.00;1.00;;;;;;;;4957504;28;45881;-51
2021/12/02 05:00:35;;;;;;;;;1.00;1.00;;;;;;;;4989828;28;45469;-49
2021/12/02 05:03:02;;;;;;;;;0.00;0.00;;;;;;;;4958244;28;45474;-48
2021/12/02 05:05:27;;;;;;;;;2.50;2.50;;;;;;;;4957571;28;45530;-48
2021/12/02 05:07:53;;;;;;;;;2.75;2.00;;;;;;;;4956869;28;45524;-47
2021/12/02 05:10:19;;;;;;;;;1.75;1.00;;;;;;;;4956776;28;45249;-47
2021/12/02 05:12:45;;;;;;;;;0.25;0.25;;;;;;;;4960731;28;45364;-48
2021/12/02 05:15:10;;;;;;;;;1.00;1.00;;;;;;;;4957346;28;45415;-50
2021/12/02 05:17:35;;;;;;;;;2.00;2.00;;;;;;;;4958330;28;46145;-48
2021/12/02 05:20:00;;;;;;;;;2.00;2.00;;;;;;;;4956622;28;45502;-50
2021/12/02 05:22:25;;;;;;;;;6.50;2.00;;;;;;;;4958019;28;45379;-47
2021/12/02 05:24:51;;;;;;;;;2.75;2.75;;;;;;;;4955634;28;45665;-46
2021/12/02 05:27:16;;;;;;;;;5.00;2.75;;;;;;;;4939987;28;46233;-47
2021/12/02 05:29:41;;;;;;;;;6.00;2.00;;;;;;;;4938506;28;45353;-48
2021/12/02 05:32:07;;;;;;;;;1.75;1.75;;;;;;;;4941166;28;45199;-47
2021/12/02 05:34:32;;;;;;;;;2.00;1.75;;;;;;;;4942612;28;45222;-49
2021/12/02 05:36:57;;;;;;;;;2.00;2.00;;;;;;;;4956609;28;45483;-48
2021/12/02 05:39:23;;;;;;;;;3.50;3.00;;;;;;;;4958140;28;45276;-51
2021/12/02 05:41:52;;;;;;;;;1.75;1.75;;;;;;;;4957396;28;45343;-50
2021/12/02 05:44:18;;;;;;;;;5.75;4.00;;;;;;;;4956104;28;45403;-51
2021/12/02 05:46:43;;;;;;;;;2.00;2.00;;;;;;;;4957374;28;45349;-48
2021/12/02 05:49:08;;;;;;;;;2.75;2.75;;;;;;;;4958052;28;45289;-48
2021/12/02 05:51:33;;;;;;;;;8.50;4.00;;;;;;;;4957627;28;45291;-51
2021/12/02 05:53:58;;;;;;;;;4.75;3.25;;;;;;;;4957521;28;45531;-49
2021/12/02 05:56:24;;;;;;;;;3.00;1.75;;;;;;;;4957650;28;46238;-48
2021/12/02 05:58:49;;;;;;;;;3.50;1.75;;;;;;;;4957771;28;45350;-50
2021/12/02 06:01:14;;;;;;;;;3.75;2.50;;;;;;;;4956971;28;45337;-51
2021/12/02 06:03:40;;;;;;;;;5.00;3.00;;;;;;;;4957175;28;45247;-49
2021/12/02 06:06:05;;;;;;;;;2.00;1.50;;;;;;;;4957486;28;45603;-50
2021/12/02 06:08:31;;;;;;;;;3.00;2.00;;;;;;;;4957665;28;45322;-45
2021/12/02 06:10:56;;;;;;;;;2.00;2.00;;;;;;;;4957687;28;45248;-48
2021/12/02 06:13:21;;;;;;;;;5.75;2.25;;;;;;;;4955915;28;45540;-48
2021/12/02 06:15:47;;;;;;;;;1.50;1.50;;;;;;;;4947181;28;45262;-48
2021/12/02 06:18:12;;;;;;;;;4.50;1.00;;;;;;;;4957554;28;45158;-50
2021/12/02 06:20:37;;;;;;;;;3.00;3.00;;;;;;;;4957088;28;45430;-48
2021/12/02 06:23:02;;;;;;;;;5.00;2.75;;;;;;;;4959496;28;45897;-47
2021/12/02 06:27:53;;;;;;;;;5.25;3.00;;;;;;;;4957535;28;45464;-51
2021/12/02 06:30:20;;;;;;;;;2.75;2.75;;;;;;;;4988320;28;45555;-49
2021/12/02 06:32:45;;;;;;;;;1.75;1.75;;;;;;;;4956069;28;45432;-49
2021/12/02 06:35:11;;;;;;;;;1.75;1.75;;;;;;;;4940502;28;45372;-48
2021/12/02 06:37:37;;;;;;;;;4.00;2.00;;;;;;;;4938011;28;45400;-47
2021/12/02 06:40:03;;;;;;;;;2.75;1.75;;;;;;;;4943932;28;45407;-46
2021/12/02 06:42:28;;;;;;;;;7.25;2.25;;;;;;;;4952650;28;45404;-47
2021/12/02 06:44:53;;;;;;;;;5.25;3.00;;;;;;;;4956311;28;45927;-47
2021/12/02 06:47:24;;;;;;;;;4.50;4.50;;;;;;;;4955409;28;45256;-48
2021/12/02 06:49:50;;;;;;;;;2.00;2.00;;;;;;;;4957418;28;45292;-47
2021/12/02 06:52:15;;;;;;;;;4.50;3.00;;;;;;;;4983444;28;45283;-48
2021/12/02 06:54:40;;;;;;;;;1.50;1.50;;;;;;;;4939064;28;45682;-53
2021/12/02 06:57:06;;;;;;;;;4.00;4.00;;;;;;;;4956386;28;45423;-49
2021/12/02 06:59:31;;;;;;;;;2.00;2.00;;;;;;;;4955898;28;45820;-45
2021/12/02 07:01:56;;;;;;;;;3.00;3.00;;;;;;;;4956020;28;45400;-44
2021/12/02 07:04:21;;;;;;;;;2.25;2.25;;;;;;;;4954406;28;46282;-50
2021/12/02 07:06:47;;;;;;;;;4.50;4.50;;;;;;;;4956672;28;45400;-47
2021/12/02 07:09:12;;;;;;;;;2.00;2.00;;;;;;;;4956204;28;45452;-46
2021/12/02 07:11:37;;;;;;;;;3.50;1.75;;;;;;;;4954645;28;45427;-50
2021/12/02 07:14:06;;;;;;;;;2.50;2.50;;;;;;;;4944426;28;46006;-47
2021/12/02 07:16:32;;;;;;;;;2.75;2.75;;;;;;;;4961858;28;45365;-51
2021/12/02 07:18:58;;;;;;;;;2.50;2.50;;;;;;;;4956035;28;45509;-47
2021/12/02 07:21:24;;;;;;;;;2.00;2.00;;;;;;;;4958858;28;45487;-50
2021/12/02 07:23:50;;;;;;;;;4.50;2.75;;;;;;;;4959800;28;46314;-51
2021/12/02 07:26:15;;;;;;;;;2.00;1.50;;;;;;;;4961623;28;45625;-47
2021/12/02 07:28:40;;;;;;;;;3.00;3.00;;;;;;;;4959249;28;45282;-48
2021/12/02 07:31:06;;;;;;;;;6.50;1.50;;;;;;;;4959301;28;45475;-52
2021/12/02 07:33:36;;;;;;;;;2.00;2.00;;;;;;;;4959510;28;45930;-50
2021/12/02 07:36:01;;;;;;;;;2.00;1.00;;;;;;;;4959671;28;45456;-52
2021/12/02 07:38:26;;;;;;;;;1.75;1.75;;;;;;;;4959411;28;45579;-49
2021/12/02 07:40:51;;;;;;;;;1.75;1.75;;;;;;;;4957640;28;45613;-45
2021/12/02 07:43:19;;;;;;;;;5.75;3.00;;;;;;;;4955689;28;45420;-48
2021/12/02 07:45:44;;;;;;;;;1.00;1.00;;;;;;;;4959359;28;45334;-49
2021/12/02 07:48:10;;;;;;;;;1.25;1.25;;;;;;;;4958317;28;45431;-50
2021/12/02 07:50:36;;;;;;;;;2.00;2.00;;;;;;;;4958577;28;45487;-45
2021/12/02 07:53:03;;;;;;;;;1.50;1.50;;;;;;;;4958721;28;45470;-50
2021/12/02 07:55:29;;;;;;;;;3.50;3.50;;;;;;;;4958902;28;45308;-47
2021/12/02 07:57:54;;;;;;;;;2.00;2.00;;;;;;;;4958915;28;45237;-51
2021/12/02 08:00:21;;;;;;;;;4.50;2.00;;;;;;;;4958352;28;45258;-48
2021/12/02 08:02:47;;;;;;;;;6.25;3.00;;;;;;;;4957676;28;45540;-48
2021/12/02 08:05:13;;;;;;;;;2.00;2.00;;;;;;;;4958818;28;45389;-49
2021/12/02 08:07:39;;;;;;;;;4.50;3.00;;;;;;;;4959255;28;45379;-47
2021/12/02 08:10:05;;;;;;;;;2.00;2.00;;;;;;;;4959424;28;45499;-50
2021/12/02 08:12:31;;;;;;;;;3.00;2.00;;;;;;;;4954765;28;46023;-46
2021/12/02 08:14:56;;;;;;;;;2.50;2.00;;;;;;;;4939370;28;45377;-50
2021/12/02 08:17:21;;;;;;;;;3.00;3.00;;;;;;;;4939664;28;45957;-48
2021/12/02 08:19:46;;;;;;;;;2.00;1.25;;;;;;;;4940202;28;45423;-46
2021/12/02 08:22:11;;;;;;;;;3.00;2.50;;;;;;;;4938331;28;45478;-48
2021/12/02 08:24:37;;;;;;;;;5.00;5.00;;;;;;;;4939656;28;45420;-51
2021/12/02 08:27:02;;;;;;;;;4.50;2.75;;;;;;;;4938094;28;45468;-45
2021/12/02 08:29:27;;;;;;;;;3.75;2.25;;;;;;;;4939552;28;45476;-51
2021/12/02 08:31:52;;;;;;;;;3.00;3.00;;;;;;;;4938417;28;46711;-44
2021/12/02 08:34:18;;;;;;;;;2.00;2.00;;;;;;;;4939597;28;45338;-47
2021/12/02 08:36:51;;;;;;;;;1.25;1.00;;;;;;;;4939389;28;45414;-45
2021/12/02 08:39:18;;;;;;;;;1.25;1.25;;;;;;;;4939531;28;45330;-46
2021/12/02 08:41:48;;;;;;;;;3.50;2.25;;;;;;;;4939185;28;45254;-47
2021/12/02 08:44:14;;;;;;;;;1.00;1.00;;;;;;;;4938181;28;45467;-48
2021/12/02 08:46:40;;;;;;;;;5.00;2.50;;;;;;;;4939361;28;45469;-48
2021/12/02 08:49:05;;;;;;;;;1.00;1.00;;;;;;;;4939177;28;45453;-47
2021/12/02 08:51:30;;;;;;;;;6.00;3.00;;;;;;;;4939335;28;45388;-46
2021/12/02 08:53:55;;;;;;;;;5.50;2.00;;;;;;;;4939315;28;45472;-54
2021/12/02 08:56:21;;;;;;;;;3.00;3.00;;;;;;;;4939575;28;45440;-47
2021/12/02 08:58:46;;;;;;;;;2.00;2.00;;;;;;;;4938990;28;45342;-51
2021/12/02 09:01:11;;;;;;;;;2.75;1.75;;;;;;;;4939256;28;46564;-47
2021/12/02 09:03:38;;;;;;;;;2.00;2.00;;;;;;;;4938926;28;45284;-47
2021/12/02 09:06:03;;;;;;;;;6.75;4.00;;;;;;;;4970622;28;45313;-46
2021/12/02 09:08:28;;;;;;;;;2.00;2.00;;;;;;;;4939147;28;45552;-51
2021/12/02 09:10:56;;;;;;;;;1.00;0.75;;;;;;;;4938811;28;46020;-49
2021/12/02 09:13:22;;;;;;;;;2.00;2.00;;;;;;;;4939497;28;45284;-52
2021/12/02 09:15:48;;;;;;;;;3.00;3.00;;;;;;;;4939134;28;45264;-50
2021/12/02 09:18:13;;;;;;;;;5.00;3.00;;;;;;;;4939364;28;45295;-47
2021/12/02 09:20:38;;;;;;;;;2.00;2.00;;;;;;;;4938385;28;45413;-45
2021/12/02 09:23:04;;;;;;;;;3.50;3.00;;;;;;;;4938813;28;45284;-50
2021/12/02 09:25:29;;;;;;;;;2.75;2.75;;;;;;;;4938866;28;45330;-45
2021/12/02 09:27:54;;;;;;;;;5.00;3.75;;;;;;;;4938927;28;45321;-49
2021/12/02 09:30:20;;;;;;;;;5.25;2.75;;;;;;;;4938712;28;45346;-47
2021/12/02 09:32:45;;;;;;;;;2.00;2.00;;;;;;;;4938459;28;45288;-48
2021/12/02 09:35:11;;;;;;;;;2.75;2.75;;;;;;;;4938866;28;45322;-50
2021/12/02 09:37:36;;;;;;;;;7.00;6.00;;;;;;;;4938965;28;45547;-49
2021/12/02 09:40:01;;;;;;;;;5.00;3.00;;;;;;;;4938792;28;46301;-51
2021/12/02 09:42:27;;;;;;;;;2.00;2.00;;;;;;;;4946541;28;45440;-49
2021/12/02 09:44:55;;;;;;;;;5.75;3.00;;;;;;;;4958092;28;45416;-47
2021/12/02 09:47:21;;;;;;;;;5.50;5.00;;;;;;;;4958105;28;45305;-52
2021/12/02 09:49:46;;;;;;;;;6.25;5.25;;;;;;;;4956976;28;46026;-48
2021/12/02 09:52:14;;;;;;;;;1.50;1.50;;;;;;;;4938584;28;45272;-49
2021/12/02 09:54:43;;;;;;;;;5.50;3.00;;;;;;;;4937082;28;45387;-49
2021/12/02 09:57:13;;;;;;;;;4.50;4.50;;;;;;;;4937194;28;45247;-47
2021/12/02 10:02:07;;;;;;;;;1.00;1.00;;;;;;;;4938079;28;45455;-47
2021/12/02 10:04:38;;;;;;;;;2.00;2.00;;;;;;;;4938049;28;45369;-49
2021/12/02 10:07:04;;;;;;;;;4.50;3.50;;;;;;;;4937114;28;45346;-48
2021/12/02 10:09:43;;;;;;;;;4.00;4.00;;;;;;;;4937977;28;46389;-48
2021/12/02 10:12:17;;;;;;;;;2.25;2.25;;;;;;;;4946627;28;45372;-50
2021/12/02 10:14:48;;;;;;;;;6.00;3.50;;;;;;;;4957448;28;45316;-48
2021/12/02 10:17:32;;;;;;;;;8.25;8.25;;;;;;;;4957255;28;45415;-47
2021/12/02 10:20:24;;;;;;;;;4.75;4.75;;;;;;;;4957268;28;45237;-48
2021/12/02 10:23:06;;;;;;;;;6.25;4.50;;;;;;;;4955888;28;45476;-49
2021/12/02 10:25:32;;;;;;;;;1.25;1.00;;;;;;;;4957349;28;45418;-49
2021/12/02 10:28:08;;;;;;;;;1.00;1.00;;;;;;;;4956819;28;45297;-48
2021/12/02 10:30:34;;;;;;;;;4.00;3.00;;;;;;;;4957110;28;45402;-47
2021/12/02 10:32:59;;;;;;;;;1.25;1.25;;;;;;;;4956928;28;45261;-47
2021/12/02 10:35:38;;;;;;;;;2.00;2.00;;;;;;;;4957038;28;45182;-48
2021/12/02 10:38:03;;;;;;;;;2.00;2.00;;;;;;;;4956513;28;45297;-51
2021/12/02 10:40:29;;;;;;;;;3.00;2.25;;;;;;;;4957085;28;45330;-48
2021/12/02 10:42:54;;;;;;;;;1.00;1.00;;;;;;;;4955517;28;45688;-46
2021/12/02 10:45:24;;;;;;;;;2.50;2.50;;;;;;;;4955688;28;45344;-51
2021/12/02 10:47:51;;;;;;;;;1.00;1.00;;;;;;;;4954969;28;45579;-51
2021/12/02 10:50:17;;;;;;;;;1.00;1.00;;;;;;;;4955746;28;45419;-51
2021/12/02 10:52:42;;;;;;;;;2.75;2.25;;;;;;;;4956950;28;45428;-51
2021/12/02 10:55:10;;;;;;;;;1.50;1.50;;;;;;;;4959268;28;45352;-50
2021/12/02 10:57:48;;;;;;;;;5.50;2.75;;;;;;;;4960472;28;45316;-49
2021/12/02 11:00:15;;;;;;;;;1.25;1.25;;;;;;;;4959635;28;45575;-46
2021/12/02 11:02:46;;;;;;;;;2.25;2.00;;;;;;;;4959605;28;45282;-47
2021/12/02 11:05:21;;;;;;;;;5.75;1.00;;;;;;;;4958668;28;45344;-48
2021/12/02 11:07:52;;;;;;;;;2.75;1.50;;;;;;;;4960046;28;45361;-49
2021/12/02 11:10:17;;;;;;;;;3.50;2.25;;;;;;;;4959598;28;46251;-48
2021/12/02 11:12:44;;;;;;;;;3.00;1.00;;;;;;;;4942328;28;45476;-48
2021/12/02 11:15:36;;;;;;;;;1.50;1.50;;;;;;;;4940794;28;45312;-48
2021/12/02 11:18:06;;;;;;;;;3.00;3.00;;;;;;;;4940333;28;45303;-52
2021/12/02 11:20:38;;;;;;;;;3.50;1.75;;;;;;;;4940294;28;45374;-51
2021/12/02 11:23:06;;;;;;;;;1.75;1.75;;;;;;;;4939917;28;45354;-51
2021/12/02 11:25:34;;;;;;;;;1.50;1.50;;;;;;;;4940470;28;45355;-50
2021/12/02 11:28:04;;;;;;;;;2.00;1.00;;;;;;;;4940534;28;45611;-50
2021/12/02 11:30:29;;;;;;;;;3.00;3.00;;;;;;;;4940283;28;46322;-49
2021/12/02 11:33:01;;;;;;;;;1.00;1.00;;;;;;;;4939811;28;45373;-50
2021/12/02 11:35:33;;;;;;;;;1.00;1.00;;;;;;;;4940353;28;45354;-48
2021/12/02 11:38:06;;;;;;;;;2.00;1.00;;;;;;;;4940398;28;45163;-47
2021/12/02 11:40:37;;;;;;;;;1.50;1.50;;;;;;;;4939889;28;47555;-51
2021/12/02 11:43:03;;;;;;;;;1.25;1.00;;;;;;;;4958399;28;45321;-48
2021/12/02 11:45:29;;;;;;;;;1.50;1.50;;;;;;;;4958095;28;45298;-49
2021/12/02 11:47:55;;;;;;;;;0.50;0.50;;;;;;;;4958400;28;45506;-49
2021/12/02 11:50:21;;;;;;;;;1.50;0.00;;;;;;;;4958823;28;45479;-51
2021/12/02 11:52:47;;;;;;;;;0.25;0.25;;;;;;;;4959213;28;45436;-46
2021/12/02 11:55:15;;;;;;;;;0.25;0.00;;;;;;;;4958923;28;45411;-50
2021/12/02 11:57:41;;;;;;;;;0.00;0.00;;;;;;;;4959661;28;45247;-50
2021/12/02 12:00:08;;;;;;;;;1.00;0.00;;;;;;;;4958667;28;45374;-50
2021/12/02 12:02:34;;;;;;;;;0.25;0.25;;;;;;;;4957674;28;45460;-47
2021/12/02 12:05:01;;;;;;;;;0.00;0.00;;;;;;;;4957805;28;45420;-45
2021/12/02 12:07:37;;;;;;;;;1.00;1.00;;;;;;;;4958049;28;45391;-49
2021/12/02 12:10:11;;;;;;;;;0.50;0.50;;;;;;;;4958034;28;46255;-47
2021/12/02 12:12:37;;;;;;;;;0.00;0.00;;;;;;;;4956127;28;45358;-51
2021/12/02 12:15:02;;;;;;;;;2.00;0.00;;;;;;;;4959031;28;45456;-48
2021/12/02 12:17:38;;;;;;;;;2.75;0.75;;;;;;;;4958621;28;45289;-51
2021/12/02 12:20:03;;;;;;;;;1.00;1.00;;;;;;;;4958777;28;45400;-58
2021/12/02 12:22:29;;;;;;;;;1.25;0.25;;;;;;;;4958463;28;45345;-47
2021/12/02 12:24:57;;;;;;;;;0.00;0.00;;;;;;;;4959040;28;45335;-47
2021/12/02 12:27:27;;;;;;;;;4.00;0.75;;;;;;;;4958244;28;45562;-52
2021/12/02 12:30:01;;;;;;;;;3.75;1.00;;;;;;;;4958943;28;45349;-50
2021/12/02 12:32:42;;;;;;;;;1.00;1.00;;;;;;;;4958134;28;45484;-51
2021/12/02 12:35:24;;;;;;;;;0.00;0.00;;;;;;;;4957623;28;45186;-52
2021/12/02 12:37:51;;;;;;;;;5.00;2.75;;;;;;;;4957311;28;45262;-51
2021/12/02 12:40:18;;;;;;;;;0.00;0.00;;;;;;;;4958497;28;45857;-50
2021/12/02 12:42:44;;;;;;;;;2.50;1.50;;;;;;;;4958674;28;45356;-46
2021/12/02 12:45:11;;;;;;;;;1.00;0.00;;;;;;;;4958659;28;45333;-49
2021/12/02 12:47:42;;;;;;;;;2.00;1.00;;;;;;;;4958684;28;45380;-51
2021/12/02 12:50:22;;;;;;;;;2.50;0.75;;;;;;;;4957861;28;46222;-48
2021/12/02 12:52:54;;;;;;;;;2.00;0.00;;;;;;;;4958720;28;45550;-52
2021/12/02 12:55:20;;;;;;;;;0.00;0.00;;;;;;;;4958591;28;45317;-49
2021/12/02 12:58:04;;;;;;;;;0.00;0.00;;;;;;;;4958342;28;45465;-51
2021/12/02 13:00:42;;;;;;;;;1.50;1.00;;;;;;;;4953955;28;45316;-47
2021/12/02 13:03:11;;;;;;;;;0.00;0.00;;;;;;;;4938951;28;45414;-49
2021/12/02 13:05:49;;;;;;;;;0.75;0.75;;;;;;;;4939266;28;45290;-48
2021/12/02 13:08:17;;;;;;;;;1.00;1.00;;;;;;;;4939297;28;45412;-50
2021/12/02 13:10:50;;;;;;;;;2.00;0.67;;;;;;;;4938817;28;47178;-50
2021/12/02 13:13:44;;;;;;;;;2.75;1.50;;;;;;;;4939612;28;45343;-49
2021/12/02 13:16:10;;;;;;;;;1.50;1.50;;;;;;;;4937921;28;45499;-47
2021/12/02 13:18:38;;;;;;;;;0.25;0.25;;;;;;;;4938882;28;45411;-51
2021/12/02 13:21:22;;;;;;;;;1.00;1.00;;;;;;;;4938980;28;46032;-47
2021/12/02 13:23:57;;;;;;;;;0.00;0.00;;;;;;;;4938550;28;45445;-48
2021/12/02 13:26:26;;;;;;;;;1.00;0.00;;;;;;;;4939148;28;45285;-50
2021/12/02 13:28:53;;;;;;;;;1.00;1.00;;;;;;;;4938886;28;45555;-48
2021/12/02 13:31:19;;;;;;;;;1.33;0.00;;;;;;;;4949921;28;45581;-49
2021/12/02 13:33:45;;;;;;;;;0.00;0.00;;;;;;;;4957638;28;45357;-47
2021/12/02 13:36:11;;;;;;;;;0.00;0.00;;;;;;;;4958091;28;45354;-49
2021/12/02 13:38:37;;;;;;;;;1.00;1.00;;;;;;;;4958221;28;45583;-49
2021/12/02 13:41:17;;;;;;;;;0.00;0.00;;;;;;;;4957979;28;45973;-49
2021/12/02 13:43:55;;;;;;;;;2.33;0.00;;;;;;;;4956982;28;45473;-50
2021/12/02 13:46:28;;;;;;;;;0.00;0.00;;;;;;;;4957333;28;45518;-49
2021/12/02 13:48:54;;;;;;;;;3.00;3.00;;;;;;;;4957818;28;45375;-51
2021/12/02 13:54:24;;;;;;;;;1.00;1.00;;;;;;;;4944604;28;45380;-47
2021/12/02 13:56:50;;;;;;;;;1.00;1.00;;;;;;;;4956804;28;45396;-47
2021/12/02 13:59:17;;;;;;;;;1.00;1.00;;;;;;;;4957911;28;45641;-47
2021/12/02 14:01:50;;;;;;;;;0.00;0.00;;;;;;;;4956865;28;46176;-48
2021/12/02 14:04:15;;;;;;;;;0.00;0.00;;;;;;;;4956502;28;46154;-48
2021/12/02 14:06:40;;;;;;;;;1.00;0.33;;;;;;;;4957209;28;45411;-47
2021/12/02 14:09:12;;;;;;;;;1.67;1.67;;;;;;;;4957783;28;45384;-52
2021/12/02 14:11:37;;;;;;;;;1.00;1.00;;;;;;;;4957764;28;46001;-49
2021/12/02 14:14:02;;;;;;;;;2.00;1.00;;;;;;;;4957623;28;45357;-51
2021/12/02 14:16:28;;;;;;;;;1.00;1.00;;;;;;;;4957937;28;45348;-49
2021/12/02 14:18:58;;;;;;;;;1.00;1.00;;;;;;;;4957223;28;45523;-46
2021/12/02 14:21:26;;;;;;;;;0.00;0.00;;;;;;;;4956095;28;45455;-49
2021/12/02 14:23:54;;;;;;;;;2.00;2.00;;;;;;;;4957380;28;45225;-49
2021/12/02 14:26:20;;;;;;;;;0.00;0.00;;;;;;;;4957774;28;45348;-48
2021/12/02 14:28:46;;;;;;;;;0.67;0.67;;;;;;;;4954731;28;45365;-49
2021/12/02 14:31:20;;;;;;;;;2.00;1.00;;;;;;;;4942729;28;45373;-51
2021/12/02 14:33:46;;;;;;;;;0.67;0.67;;;;;;;;4937992;28;45442;-50
2021/12/02 14:36:15;;;;;;;;;0.00;0.00;;;;;;;;4938044;28;45326;-49
2021/12/02 14:38:41;;;;;;;;;0.25;0.25;;;;;;;;4937916;28;45329;-51
2021/12/02 14:41:08;;;;;;;;;0.67;0.67;;;;;;;;4937360;28;46155;-47
2021/12/02 14:43:34;;;;;;;;;1.00;1.00;;;;;;;;4937894;28;45566;-47
2021/12/02 14:46:10;;;;;;;;;1.00;1.00;;;;;;;;4936447;28;45400;-49
2021/12/02 14:48:35;;;;;;;;;0.00;0.00;;;;;;;;4937825;28;45314;-49
2021/12/02 14:51:03;;;;;;;;;2.75;1.00;;;;;;;;4935678;28;46695;-51
2021/12/02 14:53:30;;;;;;;;;3.00;2.00;;;;;;;;4937677;28;45443;-48
2021/12/02 14:55:57;;;;;;;;;0.00;0.00;;;;;;;;4937798;28;45415;-49
2021/12/02 14:58:26;;;;;;;;;0.00;0.00;;;;;;;;4937642;28;45453;-49
2021/12/02 15:01:08;;;;;;;;;0.00;0.00;;;;;;;;4949812;28;45416;-50
2021/12/02 15:03:33;;;;;;;;;1.00;1.00;;;;;;;;4956575;28;45294;-48
2021/12/02 15:05:58;;;;;;;;;0.00;0.00;;;;;;;;4956996;28;45254;-48
2021/12/02 15:08:31;;;;;;;;;1.00;1.00;;;;;;;;4957189;28;45524;-49
2021/12/02 15:10:56;;;;;;;;;1.50;1.00;;;;;;;;4956980;28;45305;-48